Aviation Digital Data Service (ADDS)

Output produced by METARs form (1639 UTC 23 January 2019)
found at http://www.aviationweather.gov/metar/data/
 
METAR text: FAGM 230900Z 35005KT CAVOK 29/05 Q1023
Conditions at: FAGM (JOHANNESBURG/RAN, ZA) observed 0900 UTC 23 January 2019
Temperature: 29.0°C (84°F)
Dewpoint: 5.0°C (41°F) [RH = 22%]
Pressure (altimeter): 30.21 inches Hg (1023.0 mb)
Winds: from the N (350 degrees) at 6 MPH (5 knots; 2.6 m/s)
Visibility: 6 or more miles (10+ km)
Ceiling: ceiling and visibility are OK
Clouds: unknown
Weather: no significant weather observed at this time

METAR text: FAGM 230800Z 30006KT CAVOK 28/07 Q1023
Conditions at: FAGM (JOHANNESBURG/RAN, ZA) observed 0800 UTC 23 January 2019
Temperature: 28.0°C (82°F)
Dewpoint: 7.0°C (45°F) [RH = 27%]
Pressure (altimeter): 30.21 inches Hg (1023.0 mb)
Winds: from the WNW (300 degrees) at 7 MPH (6 knots; 3.1 m/s)
Visibility: 6 or more miles (10+ km)
Ceiling: ceiling and visibility are OK
Clouds: unknown
Weather: no significant weather observed at this time

METAR text: FAGM 230500Z 32006KT CAVOK 22/06 Q1022
Conditions at: FAGM (JOHANNESBURG/RAN, ZA) observed 0500 UTC 23 January 2019
Temperature: 22.0°C (72°F)
Dewpoint: 6.0°C (43°F) [RH = 35%]
Pressure (altimeter): 30.18 inches Hg (1022.0 mb)
Winds: from the NW (320 degrees) at 7 MPH (6 knots; 3.1 m/s)
Visibility: 6 or more miles (10+ km)
Ceiling: ceiling and visibility are OK
Clouds: unknown
Weather: no significant weather observed at this time